sensor_id;sensor_type;location;lat;lon;timestamp;P1;durP1;ratioP1;P2;durP2;ratioP2
78406;SDS011;67692;51.074;-1.790;2023-08-01T00:01:00;7.88;;;1.98;;
78406;SDS011;67692;51.074;-1.790;2023-08-01T00:03:27;9.43;;;2.35;;
78406;SDS011;67692;51.074;-1.790;2023-08-01T00:05:53;8.95;;;2.30;;
78406;SDS011;67692;51.074;-1.790;2023-08-01T00:08:20;8.90;;;2.22;;
78406;SDS011;67692;51.074;-1.790;2023-08-01T00:10:48;7.45;;;1.90;;
78406;SDS011;67692;51.074;-1.790;2023-08-01T00:13:15;6.03;;;2.17;;
78406;SDS011;67692;51.074;-1.790;2023-08-01T00:15:42;10.93;;;2.60;;
78406;SDS011;67692;51.074;-1.790;2023-08-01T00:18:08;13.35;;;2.40;;
78406;SDS011;67692;51.074;-1.790;2023-08-01T00:20:35;10.05;;;2.83;;
78406;SDS011;67692;51.074;-1.790;2023-08-01T00:23:02;9.23;;;1.80;;
78406;SDS011;67692;51.074;-1.790;2023-08-01T00:25:28;10.25;;;2.58;;
78406;SDS011;67692;51.074;-1.790;2023-08-01T00:27:56;9.40;;;2.30;;
78406;SDS011;67692;51.074;-1.790;2023-08-01T00:30:23;9.10;;;2.40;;
78406;SDS011;67692;51.074;-1.790;2023-08-01T00:32:49;9.40;;;2.80;;
78406;SDS011;67692;51.074;-1.790;2023-08-01T00:35:16;8.43;;;1.90;;
78406;SDS011;67692;51.074;-1.790;2023-08-01T00:37:43;8.90;;;2.30;;
78406;SDS011;67692;51.074;-1.790;2023-08-01T00:40:10;14.10;;;2.50;;
78406;SDS011;67692;51.074;-1.790;2023-08-01T00:42:37;11.02;;;2.63;;
78406;SDS011;67692;51.074;-1.790;2023-08-01T00:45:06;8.00;;;1.80;;
78406;SDS011;67692;51.074;-1.790;2023-08-01T00:47:33;11.38;;;2.40;;
78406;SDS011;67692;51.074;-1.790;2023-08-01T00:50:00;13.48;;;2.80;;
78406;SDS011;67692;51.074;-1.790;2023-08-01T00:52:27;5.70;;;2.10;;
78406;SDS011;67692;51.074;-1.790;2023-08-01T00:54:55;9.48;;;2.47;;
78406;SDS011;67692;51.074;-1.790;2023-08-01T00:57:21;10.25;;;2.28;;
78406;SDS011;67692;51.074;-1.790;2023-08-01T00:59:48;10.82;;;1.77;;
78406;SDS011;67692;51.074;-1.790;2023-08-01T01:02:16;10.43;;;2.15;;
78406;SDS011;67692;51.074;-1.790;2023-08-01T01:04:43;15.80;;;3.00;;
78406;SDS011;67692;51.074;-1.790;2023-08-01T01:07:10;13.60;;;2.53;;
78406;SDS011;67692;51.074;-1.790;2023-08-01T01:09:38;12.32;;;2.38;;
78406;SDS011;67692;51.074;-1.790;2023-08-01T01:12:05;10.85;;;2.80;;
78406;SDS011;67692;51.074;-1.790;2023-08-01T01:14:32;9.38;;;2.10;;
78406;SDS011;67692;51.074;-1.790;2023-08-01T01:16:59;11.07;;;2.13;;
78406;SDS011;67692;51.074;-1.790;2023-08-01T01:19:27;11.75;;;2.42;;
78406;SDS011;67692;51.074;-1.790;2023-08-01T01:21:54;10.75;;;2.25;;
78406;SDS011;67692;51.074;-1.790;2023-08-01T01:24:23;7.50;;;1.90;;
78406;SDS011;67692;51.074;-1.790;2023-08-01T01:26:50;8.70;;;2.28;;
78406;SDS011;67692;51.074;-1.790;2023-08-01T01:29:19;14.13;;;3.20;;
78406;SDS011;67692;51.074;-1.790;2023-08-01T01:31:47;11.30;;;2.47;;
78406;SDS011;67692;51.074;-1.790;2023-08-01T01:34:15;13.55;;;2.33;;
78406;SDS011;67692;51.074;-1.790;2023-08-01T01:36:41;9.55;;;2.55;;
78406;SDS011;67692;51.074;-1.790;2023-08-01T01:39:09;7.28;;;2.03;;
78406;SDS011;67692;51.074;-1.790;2023-08-01T01:41:36;12.40;;;2.47;;
78406;SDS011;67692;51.074;-1.790;2023-08-01T01:44:03;10.23;;;2.38;;
78406;SDS011;67692;51.074;-1.790;2023-08-01T01:46:30;11.23;;;3.45;;
78406;SDS011;67692;51.074;-1.790;2023-08-01T01:48:56;11.93;;;2.65;;
78406;SDS011;67692;51.074;-1.790;2023-08-01T01:51:25;9.32;;;2.13;;
78406;SDS011;67692;51.074;-1.790;2023-08-01T01:53:52;11.25;;;2.58;;
78406;SDS011;67692;51.074;-1.790;2023-08-01T01:56:20;11.25;;;2.40;;
78406;SDS011;67692;51.074;-1.790;2023-08-01T01:58:46;9.88;;;2.55;;
78406;SDS011;67692;51.074;-1.790;2023-08-01T02:01:13;6.82;;;2.20;;
78406;SDS011;67692;51.074;-1.790;2023-08-01T02:03:40;12.50;;;2.30;;
78406;SDS011;67692;51.074;-1.790;2023-08-01T02:06:06;13.90;;;2.78;;
78406;SDS011;67692;51.074;-1.790;2023-08-01T02:08:33;12.15;;;2.42;;
78406;SDS011;67692;51.074;-1.790;2023-08-01T02:11:00;11.65;;;2.35;;
78406;SDS011;67692;51.074;-1.790;2023-08-01T02:13:28;9.15;;;2.40;;
78406;SDS011;67692;51.074;-1.790;2023-08-01T02:15:56;7.88;;;2.33;;
78406;SDS011;67692;51.074;-1.790;2023-08-01T02:18:22;8.88;;;2.47;;
78406;SDS011;67692;51.074;-1.790;2023-08-01T02:20:49;6.60;;;2.22;;
78406;SDS011;67692;51.074;-1.790;2023-08-01T02:23:16;13.30;;;2.90;;
78406;SDS011;67692;51.074;-1.790;2023-08-01T02:25:42;13.60;;;2.75;;
78406;SDS011;67692;51.074;-1.790;2023-08-01T02:28:09;12.05;;;2.50;;
78406;SDS011;67692;51.074;-1.790;2023-08-01T02:30:37;9.85;;;2.55;;
78406;SDS011;67692;51.074;-1.790;2023-08-01T02:33:04;9.27;;;2.25;;
78406;SDS011;67692;51.074;-1.790;2023-08-01T02:35:30;8.00;;;3.13;;
78406;SDS011;67692;51.074;-1.790;2023-08-01T02:37:57;11.30;;;2.20;;
78406;SDS011;67692;51.074;-1.790;2023-08-01T02:40:23;13.55;;;2.80;;
78406;SDS011;67692;51.074;-1.790;2023-08-01T02:42:51;14.43;;;2.40;;
78406;SDS011;67692;51.074;-1.790;2023-08-01T02:45:18;9.38;;;2.22;;
78406;SDS011;67692;51.074;-1.790;2023-08-01T02:47:46;9.57;;;2.75;;
78406;SDS011;67692;51.074;-1.790;2023-08-01T02:50:12;12.20;;;2.80;;
78406;SDS011;67692;51.074;-1.790;2023-08-01T02:52:39;9.63;;;2.58;;
78406;SDS011;67692;51.074;-1.790;2023-08-01T02:55:06;8.73;;;2.35;;
78406;SDS011;67692;51.074;-1.790;2023-08-01T02:57:33;14.38;;;2.50;;
78406;SDS011;67692;51.074;-1.790;2023-08-01T03:00:00;9.65;;;2.20;;
78406;SDS011;67692;51.074;-1.790;2023-08-01T03:02:30;9.70;;;2.28;;
78406;SDS011;67692;51.074;-1.790;2023-08-01T03:04:58;14.65;;;2.25;;
78406;SDS011;67692;51.074;-1.790;2023-08-01T03:07:24;11.77;;;3.30;;
78406;SDS011;67692;51.074;-1.790;2023-08-01T03:09:51;18.13;;;3.13;;
78406;SDS011;67692;51.074;-1.790;2023-08-01T03:12:17;10.18;;;2.20;;
78406;SDS011;67692;51.074;-1.790;2023-08-01T03:14:44;11.35;;;2.13;;
78406;SDS011;67692;51.074;-1.790;2023-08-01T03:17:12;15.38;;;2.47;;
78406;SDS011;67692;51.074;-1.790;2023-08-01T03:19:39;8.80;;;2.75;;
78406;SDS011;67692;51.074;-1.790;2023-08-01T03:22:07;10.35;;;2.00;;
78406;SDS011;67692;51.074;-1.790;2023-08-01T03:24:34;11.45;;;2.55;;
78406;SDS011;67692;51.074;-1.790;2023-08-01T03:27:00;10.27;;;1.88;;
78406;SDS011;67692;51.074;-1.790;2023-08-01T03:29:28;9.80;;;2.20;;
78406;SDS011;67692;51.074;-1.790;2023-08-01T03:31:55;8.63;;;1.73;;
78406;SDS011;67692;51.074;-1.790;2023-08-01T03:34:21;12.32;;;2.15;;
78406;SDS011;67692;51.074;-1.790;2023-08-01T03:36:48;13.50;;;2.00;;
78406;SDS011;67692;51.074;-1.790;2023-08-01T03:39:16;10.45;;;1.65;;
78406;SDS011;67692;51.074;-1.790;2023-08-01T03:41:43;10.57;;;1.60;;
78406;SDS011;67692;51.074;-1.790;2023-08-01T03:44:09;9.90;;;2.35;;
78406;SDS011;67692;51.074;-1.790;2023-08-01T03:46:36;8.70;;;2.40;;
78406;SDS011;67692;51.074;-1.790;2023-08-01T03:49:03;8.73;;;2.13;;
78406;SDS011;67692;51.074;-1.790;2023-08-01T03:51:29;10.93;;;2.40;;
78406;SDS011;67692;51.074;-1.790;2023-08-01T03:53:56;15.75;;;2.35;;
78406;SDS011;67692;51.074;-1.790;2023-08-01T03:56:24;8.00;;;2.05;;
78406;SDS011;67692;51.074;-1.790;2023-08-01T03:58:50;9.80;;;1.80;;
78406;SDS011;67692;51.074;-1.790;2023-08-01T04:01:17;11.40;;;2.55;;
78406;SDS011;67692;51.074;-1.790;2023-08-01T04:03:43;8.68;;;1.88;;
78406;SDS011;67692;51.074;-1.790;2023-08-01T04:06:10;8.88;;;1.90;;
78406;SDS011;67692;51.074;-1.790;2023-08-01T04:08:40;11.02;;;2.08;;
78406;SDS011;67692;51.074;-1.790;2023-08-01T04:11:07;9.25;;;2.13;;
78406;SDS011;67692;51.074;-1.790;2023-08-01T04:13:34;8.55;;;1.83;;
78406;SDS011;67692;51.074;-1.790;2023-08-01T04:16:01;11.98;;;2.30;;
78406;SDS011;67692;51.074;-1.790;2023-08-01T04:18:28;10.60;;;2.47;;
78406;SDS011;67692;51.074;-1.790;2023-08-01T04:20:54;6.97;;;1.67;;
78406;SDS011;67692;51.074;-1.790;2023-08-01T04:23:21;7.88;;;2.15;;
78406;SDS011;67692;51.074;-1.790;2023-08-01T04:25:47;8.65;;;2.20;;
78406;SDS011;67692;51.074;-1.790;2023-08-01T04:28:14;10.07;;;1.70;;
78406;SDS011;67692;51.074;-1.790;2023-08-01T04:30:42;9.25;;;1.98;;
78406;SDS011;67692;51.074;-1.790;2023-08-01T04:33:14;8.48;;;1.95;;
78406;SDS011;67692;51.074;-1.790;2023-08-01T04:35:41;9.95;;;2.28;;
78406;SDS011;67692;51.074;-1.790;2023-08-01T04:38:08;7.60;;;1.60;;
78406;SDS011;67692;51.074;-1.790;2023-08-01T04:40:35;9.70;;;1.48;;
78406;SDS011;67692;51.074;-1.790;2023-08-01T04:43:02;9.00;;;1.83;;
78406;SDS011;67692;51.074;-1.790;2023-08-01T04:45:29;9.80;;;1.98;;
78406;SDS011;67692;51.074;-1.790;2023-08-01T04:47:57;14.60;;;2.30;;
78406;SDS011;67692;51.074;-1.790;2023-08-01T04:50:23;10.10;;;1.98;;
78406;SDS011;67692;51.074;-1.790;2023-08-01T04:52:50;8.23;;;1.98;;
78406;SDS011;67692;51.074;-1.790;2023-08-01T04:55:16;7.13;;;1.67;;
78406;SDS011;67692;51.074;-1.790;2023-08-01T04:57:43;10.02;;;2.05;;
78406;SDS011;67692;51.074;-1.790;2023-08-01T05:00:10;6.45;;;1.75;;
78406;SDS011;67692;51.074;-1.790;2023-08-01T05:02:37;7.40;;;1.40;;
78406;SDS011;67692;51.074;-1.790;2023-08-01T05:05:06;8.77;;;1.70;;
78406;SDS011;67692;51.074;-1.790;2023-08-01T05:07:33;7.95;;;1.67;;
78406;SDS011;67692;51.074;-1.790;2023-08-01T05:10:00;7.47;;;1.83;;
78406;SDS011;67692;51.074;-1.790;2023-08-01T05:12:26;9.10;;;1.45;;
78406;SDS011;67692;51.074;-1.790;2023-08-01T05:14:53;6.68;;;1.40;;
78406;SDS011;67692;51.074;-1.790;2023-08-01T05:17:19;5.85;;;1.35;;
78406;SDS011;67692;51.074;-1.790;2023-08-01T05:19:46;9.73;;;1.80;;
78406;SDS011;67692;51.074;-1.790;2023-08-01T05:22:14;4.75;;;1.20;;
78406;SDS011;67692;51.074;-1.790;2023-08-01T05:24:41;7.90;;;1.55;;
78406;SDS011;67692;51.074;-1.790;2023-08-01T05:27:07;5.32;;;1.63;;
78406;SDS011;67692;51.074;-1.790;2023-08-01T05:29:34;5.43;;;1.23;;
78406;SDS011;67692;51.074;-1.790;2023-08-01T05:32:01;8.43;;;1.38;;
78406;SDS011;67692;51.074;-1.790;2023-08-01T05:34:28;8.50;;;1.65;;
78406;SDS011;67692;51.074;-1.790;2023-08-01T05:36:55;9.73;;;1.90;;
78406;SDS011;67692;51.074;-1.790;2023-08-01T05:39:23;9.38;;;2.33;;
78406;SDS011;67692;51.074;-1.790;2023-08-01T05:41:49;13.20;;;3.22;;
78406;SDS011;67692;51.074;-1.790;2023-08-01T05:44:16;10.75;;;2.30;;
78406;SDS011;67692;51.074;-1.790;2023-08-01T05:46:43;6.15;;;2.05;;
78406;SDS011;67692;51.074;-1.790;2023-08-01T05:49:09;8.27;;;2.10;;
78406;SDS011;67692;51.074;-1.790;2023-08-01T05:51:36;6.13;;;1.33;;
78406;SDS011;67692;51.074;-1.790;2023-08-01T05:54:02;6.15;;;1.27;;
78406;SDS011;67692;51.074;-1.790;2023-08-01T05:56:31;6.97;;;1.88;;
78406;SDS011;67692;51.074;-1.790;2023-08-01T05:58:57;6.13;;;1.40;;
78406;SDS011;67692;51.074;-1.790;2023-08-01T06:01:24;7.68;;;1.30;;
78406;SDS011;67692;51.074;-1.790;2023-08-01T06:03:51;8.02;;;1.48;;
78406;SDS011;67692;51.074;-1.790;2023-08-01T06:06:17;6.90;;;2.30;;
78406;SDS011;67692;51.074;-1.790;2023-08-01T06:08:44;7.20;;;1.30;;
78406;SDS011;67692;51.074;-1.790;2023-08-01T06:11:10;7.32;;;1.05;;
78406;SDS011;67692;51.074;-1.790;2023-08-01T06:13:39;8.60;;;1.80;;
78406;SDS011;67692;51.074;-1.790;2023-08-01T06:16:05;6.90;;;1.42;;
78406;SDS011;67692;51.074;-1.790;2023-08-01T06:18:32;6.22;;;1.20;;
78406;SDS011;67692;51.074;-1.790;2023-08-01T06:20:58;8.95;;;1.20;;
78406;SDS011;67692;51.074;-1.790;2023-08-01T06:23:25;9.35;;;1.80;;
78406;SDS011;67692;51.074;-1.790;2023-08-01T06:25:51;7.10;;;1.40;;
78406;SDS011;67692;51.074;-1.790;2023-08-01T06:28:18;7.32;;;1.63;;
78406;SDS011;67692;51.074;-1.790;2023-08-01T06:30:46;6.15;;;1.33;;
78406;SDS011;67692;51.074;-1.790;2023-08-01T06:33:13;6.43;;;1.55;;
78406;SDS011;67692;51.074;-1.790;2023-08-01T06:35:39;6.13;;;1.48;;
78406;SDS011;67692;51.074;-1.790;2023-08-01T06:38:06;5.38;;;1.23;;
78406;SDS011;67692;51.074;-1.790;2023-08-01T06:40:32;7.95;;;1.67;;
78406;SDS011;67692;51.074;-1.790;2023-08-01T06:42:59;7.90;;;1.27;;
78406;SDS011;67692;51.074;-1.790;2023-08-01T06:45:25;8.15;;;1.70;;
78406;SDS011;67692;51.074;-1.790;2023-08-01T06:47:53;6.22;;;1.40;;
78406;SDS011;67692;51.074;-1.790;2023-08-01T06:50:20;4.53;;;1.15;;
78406;SDS011;67692;51.074;-1.790;2023-08-01T06:52:47;7.13;;;1.40;;
78406;SDS011;67692;51.074;-1.790;2023-08-01T06:55:13;4.63;;;1.30;;
78406;SDS011;67692;51.074;-1.790;2023-08-01T06:57:40;4.55;;;1.13;;
78406;SDS011;67692;51.074;-1.790;2023-08-01T07:00:07;8.88;;;1.48;;
78406;SDS011;67692;51.074;-1.790;2023-08-01T07:02:34;6.63;;;1.40;;
78406;SDS011;67692;51.074;-1.790;2023-08-01T07:05:03;7.40;;;1.70;;
78406;SDS011;67692;51.074;-1.790;2023-08-01T07:07:30;6.57;;;1.52;;
78406;SDS011;67692;51.074;-1.790;2023-08-01T07:09:57;9.85;;;1.88;;
78406;SDS011;67692;51.074;-1.790;2023-08-01T07:12:23;10.25;;;1.98;;
78406;SDS011;67692;51.074;-1.790;2023-08-01T07:14:50;8.20;;;1.73;;
78406;SDS011;67692;51.074;-1.790;2023-08-01T07:17:17;5.78;;;1.45;;
78406;SDS011;67692;51.074;-1.790;2023-08-01T07:19:44;9.48;;;1.35;;
78406;SDS011;67692;51.074;-1.790;2023-08-01T07:22:12;8.60;;;1.42;;
78406;SDS011;67692;51.074;-1.790;2023-08-01T07:24:38;8.95;;;1.85;;
78406;SDS011;67692;51.074;-1.790;2023-08-01T07:27:05;8.50;;;2.03;;
78406;SDS011;67692;51.074;-1.790;2023-08-01T07:29:32;9.60;;;2.28;;
78406;SDS011;67692;51.074;-1.790;2023-08-01T07:31:58;17.48;;;2.85;;
78406;SDS011;67692;51.074;-1.790;2023-08-01T07:34:25;11.52;;;1.67;;
78406;SDS011;67692;51.074;-1.790;2023-08-01T07:36:52;10.60;;;2.75;;
78406;SDS011;67692;51.074;-1.790;2023-08-01T07:39:20;11.82;;;2.17;;
78406;SDS011;67692;51.074;-1.790;2023-08-01T07:41:46;9.68;;;2.20;;
78406;SDS011;67692;51.074;-1.790;2023-08-01T07:44:13;11.32;;;1.52;;
78406;SDS011;67692;51.074;-1.790;2023-08-01T07:46:40;11.07;;;1.83;;
78406;SDS011;67692;51.074;-1.790;2023-08-01T07:49:06;8.38;;;1.90;;
78406;SDS011;67692;51.074;-1.790;2023-08-01T07:51:33;10.65;;;2.17;;
78406;SDS011;67692;51.074;-1.790;2023-08-01T07:53:59;14.38;;;2.30;;
78406;SDS011;67692;51.074;-1.790;2023-08-01T07:56:27;10.18;;;2.45;;
78406;SDS011;67692;51.074;-1.790;2023-08-01T07:58:54;11.80;;;1.83;;
78406;SDS011;67692;51.074;-1.790;2023-08-01T08:01:21;11.65;;;1.85;;
78406;SDS011;67692;51.074;-1.790;2023-08-01T08:03:48;9.13;;;2.05;;
78406;SDS011;67692;51.074;-1.790;2023-08-01T08:06:15;10.80;;;1.67;;
78406;SDS011;67692;51.074;-1.790;2023-08-01T08:08:41;8.68;;;1.52;;
78406;SDS011;67692;51.074;-1.790;2023-08-01T08:11:08;14.23;;;1.52;;
78406;SDS011;67692;51.074;-1.790;2023-08-01T08:13:36;13.75;;;1.70;;
78406;SDS011;67692;51.074;-1.790;2023-08-01T08:16:02;13.05;;;1.77;;
78406;SDS011;67692;51.074;-1.790;2023-08-01T08:18:29;11.15;;;1.88;;
78406;SDS011;67692;51.074;-1.790;2023-08-01T08:20:56;9.38;;;1.58;;
78406;SDS011;67692;51.074;-1.790;2023-08-01T08:23:23;10.38;;;1.90;;
78406;SDS011;67692;51.074;-1.790;2023-08-01T08:25:49;7.97;;;1.30;;
78406;SDS011;67692;51.074;-1.790;2023-08-01T08:28:26;8.73;;;2.05;;
78406;SDS011;67692;51.074;-1.790;2023-08-01T08:30:56;12.50;;;1.95;;
78406;SDS011;67692;51.074;-1.790;2023-08-01T08:33:23;4.05;;;1.25;;
78406;SDS011;67692;51.074;-1.790;2023-08-01T08:35:52;9.27;;;2.00;;
78406;SDS011;67692;51.074;-1.790;2023-08-01T08:38:19;9.25;;;1.50;;
78406;SDS011;67692;51.074;-1.790;2023-08-01T08:40:48;12.70;;;1.90;;
78406;SDS011;67692;51.074;-1.790;2023-08-01T08:43:23;12.65;;;2.22;;
78406;SDS011;67692;51.074;-1.790;2023-08-01T08:45:50;10.15;;;1.63;;
78406;SDS011;67692;51.074;-1.790;2023-08-01T08:48:24;8.45;;;2.58;;
78406;SDS011;67692;51.074;-1.790;2023-08-01T08:50:52;6.95;;;1.48;;
78406;SDS011;67692;51.074;-1.790;2023-08-01T08:53:19;9.38;;;1.58;;
78406;SDS011;67692;51.074;-1.790;2023-08-01T08:55:47;11.25;;;1.70;;
78406;SDS011;67692;51.074;-1.790;2023-08-01T08:58:14;7.28;;;1.60;;
78406;SDS011;67692;51.074;-1.790;2023-08-01T09:00:42;9.20;;;1.42;;
78406;SDS011;67692;51.074;-1.790;2023-08-01T09:03:09;5.20;;;1.20;;
78406;SDS011;67692;51.074;-1.790;2023-08-01T09:05:40;5.90;;;1.67;;
78406;SDS011;67692;51.074;-1.790;2023-08-01T09:08:13;6.50;;;1.35;;
78406;SDS011;67692;51.074;-1.790;2023-08-01T09:10:43;7.15;;;1.83;;
78406;SDS011;67692;51.074;-1.790;2023-08-01T09:13:10;10.40;;;1.50;;
78406;SDS011;67692;51.074;-1.790;2023-08-01T09:15:37;12.30;;;1.35;;
78406;SDS011;67692;51.074;-1.790;2023-08-01T09:18:06;6.60;;;1.63;;
78406;SDS011;67692;51.074;-1.790;2023-08-01T09:20:40;5.28;;;1.13;;
78406;SDS011;67692;51.074;-1.790;2023-08-01T09:23:10;6.10;;;1.35;;
78406;SDS011;67692;51.074;-1.790;2023-08-01T09:25:37;12.48;;;1.88;;
78406;SDS011;67692;51.074;-1.790;2023-08-01T09:28:14;3.88;;;1.00;;
78406;SDS011;67692;51.074;-1.790;2023-08-01T09:30:45;6.25;;;1.02;;
78406;SDS011;67692;51.074;-1.790;2023-08-01T09:33:15;6.50;;;1.00;;
78406;SDS011;67692;51.074;-1.790;2023-08-01T09:35:44;8.88;;;1.60;;
78406;SDS011;67692;51.074;-1.790;2023-08-01T09:38:11;10.27;;;1.30;;
78406;SDS011;67692;51.074;-1.790;2023-08-01T09:40:39;7.25;;;1.67;;
78406;SDS011;67692;51.074;-1.790;2023-08-01T09:43:06;8.02;;;1.80;;
78406;SDS011;67692;51.074;-1.790;2023-08-01T09:45:33;5.53;;;1.75;;
78406;SDS011;67692;51.074;-1.790;2023-08-01T09:48:00;9.00;;;1.33;;
78406;SDS011;67692;51.074;-1.790;2023-08-01T09:50:27;7.53;;;1.40;;
78406;SDS011;67692;51.074;-1.790;2023-08-01T09:52:55;9.23;;;1.15;;
78406;SDS011;67692;51.074;-1.790;2023-08-01T09:55:25;5.47;;;1.40;;
78406;SDS011;67692;51.074;-1.790;2023-08-01T09:57:53;8.45;;;1.45;;
78406;SDS011;67692;51.074;-1.790;2023-08-01T10:00:24;7.88;;;1.33;;
78406;SDS011;67692;51.074;-1.790;2023-08-01T10:02:51;10.65;;;1.30;;
78406;SDS011;67692;51.074;-1.790;2023-08-01T10:05:19;9.32;;;1.40;;
78406;SDS011;67692;51.074;-1.790;2023-08-01T10:07:47;9.02;;;1.52;;
78406;SDS011;67692;51.074;-1.790;2023-08-01T10:10:18;8.20;;;1.33;;
78406;SDS011;67692;51.074;-1.790;2023-08-01T10:12:46;5.75;;;1.35;;
78406;SDS011;67692;51.074;-1.790;2023-08-01T10:15:14;7.70;;;2.13;;
78406;SDS011;67692;51.074;-1.790;2023-08-01T10:17:41;9.90;;;1.52;;
78406;SDS011;67692;51.074;-1.790;2023-08-01T10:20:09;6.82;;;1.40;;
78406;SDS011;67692;51.074;-1.790;2023-08-01T10:22:38;8.20;;;1.50;;
78406;SDS011;67692;51.074;-1.790;2023-08-01T10:25:07;8.63;;;1.58;;
78406;SDS011;67692;51.074;-1.790;2023-08-01T10:27:37;8.30;;;1.08;;
78406;SDS011;67692;51.074;-1.790;2023-08-01T10:30:04;7.13;;;1.58;;
78406;SDS011;67692;51.074;-1.790;2023-08-01T10:32:33;6.53;;;1.30;;
78406;SDS011;67692;51.074;-1.790;2023-08-01T10:35:01;7.93;;;1.27;;
78406;SDS011;67692;51.074;-1.790;2023-08-01T10:37:38;5.47;;;1.38;;
78406;SDS011;67692;51.074;-1.790;2023-08-01T10:40:06;6.03;;;1.50;;
78406;SDS011;67692;51.074;-1.790;2023-08-01T10:42:38;6.85;;;1.33;;
78406;SDS011;67692;51.074;-1.790;2023-08-01T10:45:06;7.03;;;1.10;;
78406;SDS011;67692;51.074;-1.790;2023-08-01T10:47:33;5.80;;;1.10;;
78406;SDS011;67692;51.074;-1.790;2023-08-01T10:50:00;10.60;;;1.60;;
78406;SDS011;67692;51.074;-1.790;2023-08-01T10:52:28;8.48;;;2.08;;
78406;SDS011;67692;51.074;-1.790;2023-08-01T10:54:55;9.60;;;1.48;;
78406;SDS011;67692;51.074;-1.790;2023-08-01T10:57:23;4.07;;;0.95;;
78406;SDS011;67692;51.074;-1.790;2023-08-01T10:59:51;9.40;;;1.42;;
78406;SDS011;67692;51.074;-1.790;2023-08-01T11:02:19;7.88;;;2.13;;
78406;SDS011;67692;51.074;-1.790;2023-08-01T11:04:54;4.05;;;1.20;;
78406;SDS011;67692;51.074;-1.790;2023-08-01T11:07:21;5.82;;;1.30;;
78406;SDS011;67692;51.074;-1.790;2023-08-01T11:09:48;7.25;;;1.08;;
78406;SDS011;67692;51.074;-1.790;2023-08-01T11:12:15;4.50;;;1.25;;
78406;SDS011;67692;51.074;-1.790;2023-08-01T11:14:41;6.05;;;1.00;;
78406;SDS011;67692;51.074;-1.790;2023-08-01T11:17:09;7.45;;;2.10;;
78406;SDS011;67692;51.074;-1.790;2023-08-01T11:19:39;3.53;;;1.08;;
78406;SDS011;67692;51.074;-1.790;2023-08-01T11:22:08;9.13;;;1.23;;
78406;SDS011;67692;51.074;-1.790;2023-08-01T11:27:02;10.27;;;1.63;;
78406;SDS011;67692;51.074;-1.790;2023-08-01T11:29:29;4.20;;;1.20;;
78406;SDS011;67692;51.074;-1.790;2023-08-01T11:31:57;4.82;;;0.95;;
78406;SDS011;67692;51.074;-1.790;2023-08-01T11:34:27;4.43;;;1.38;;
78406;SDS011;67692;51.074;-1.790;2023-08-01T11:36:53;3.83;;;0.98;;
78406;SDS011;67692;51.074;-1.790;2023-08-01T11:39:20;7.40;;;2.00;;
78406;SDS011;67692;51.074;-1.790;2023-08-01T11:41:48;6.07;;;1.17;;
78406;SDS011;67692;51.074;-1.790;2023-08-01T11:44:15;5.22;;;0.95;;
78406;SDS011;67692;51.074;-1.790;2023-08-01T11:46:41;6.93;;;1.25;;
78406;SDS011;67692;51.074;-1.790;2023-08-01T11:49:09;8.25;;;1.23;;
78406;SDS011;67692;51.074;-1.790;2023-08-01T11:51:42;4.75;;;1.10;;
78406;SDS011;67692;51.074;-1.790;2023-08-01T11:54:11;8.07;;;1.42;;
78406;SDS011;67692;51.074;-1.790;2023-08-01T11:56:38;5.68;;;0.93;;
78406;SDS011;67692;51.074;-1.790;2023-08-01T11:59:09;8.93;;;1.17;;
78406;SDS011;67692;51.074;-1.790;2023-08-01T12:01:39;5.53;;;1.00;;
78406;SDS011;67692;51.074;-1.790;2023-08-01T12:04:07;7.93;;;1.25;;
78406;SDS011;67692;51.074;-1.790;2023-08-01T12:06:33;5.78;;;1.40;;
78406;SDS011;67692;51.074;-1.790;2023-08-01T12:09:07;4.90;;;1.00;;
78406;SDS011;67692;51.074;-1.790;2023-08-01T12:11:35;4.45;;;1.02;;
78406;SDS011;67692;51.074;-1.790;2023-08-01T12:14:02;8.48;;;1.20;;
78406;SDS011;67692;51.074;-1.790;2023-08-01T12:16:30;3.85;;;0.95;;
78406;SDS011;67692;51.074;-1.790;2023-08-01T12:18:56;7.05;;;1.20;;
78406;SDS011;67692;51.074;-1.790;2023-08-01T12:21:23;6.70;;;1.67;;
78406;SDS011;67692;51.074;-1.790;2023-08-01T12:23:50;3.55;;;1.00;;
78406;SDS011;67692;51.074;-1.790;2023-08-01T12:26:18;6.90;;;0.98;;
78406;SDS011;67692;51.074;-1.790;2023-08-01T12:28:44;4.10;;;1.13;;
78406;SDS011;67692;51.074;-1.790;2023-08-01T12:31:15;5.00;;;0.90;;
78406;SDS011;67692;51.074;-1.790;2023-08-01T12:33:42;4.15;;;1.10;;
78406;SDS011;67692;51.074;-1.790;2023-08-01T12:36:08;6.22;;;1.05;;
78406;SDS011;67692;51.074;-1.790;2023-08-01T12:38:35;5.25;;;1.00;;
78406;SDS011;67692;51.074;-1.790;2023-08-01T12:41:02;5.78;;;1.23;;
78406;SDS011;67692;51.074;-1.790;2023-08-01T12:43:30;4.82;;;0.90;;
78406;SDS011;67692;51.074;-1.790;2023-08-01T12:45:56;5.88;;;1.10;;
78406;SDS011;67692;51.074;-1.790;2023-08-01T12:48:23;4.57;;;1.15;;
78406;SDS011;67692;51.074;-1.790;2023-08-01T12:50:50;5.35;;;1.33;;
78406;SDS011;67692;51.074;-1.790;2023-08-01T12:53:18;6.50;;;1.27;;
78406;SDS011;67692;51.074;-1.790;2023-08-01T12:55:44;4.40;;;1.27;;
78406;SDS011;67692;51.074;-1.790;2023-08-01T12:58:12;4.28;;;1.10;;
78406;SDS011;67692;51.074;-1.790;2023-08-01T13:00:41;6.22;;;1.05;;
78406;SDS011;67692;51.074;-1.790;2023-08-01T13:03:08;4.20;;;1.30;;
78406;SDS011;67692;51.074;-1.790;2023-08-01T13:05:35;4.65;;;1.48;;
78406;SDS011;67692;51.074;-1.790;2023-08-01T13:08:02;5.25;;;1.02;;
78406;SDS011;67692;51.074;-1.790;2023-08-01T13:10:29;4.55;;;0.90;;
78406;SDS011;67692;51.074;-1.790;2023-08-01T13:12:56;4.50;;;1.02;;
78406;SDS011;67692;51.074;-1.790;2023-08-01T13:15:23;2.72;;;0.85;;
78406;SDS011;67692;51.074;-1.790;2023-08-01T13:17:51;3.80;;;1.02;;
78406;SDS011;67692;51.074;-1.790;2023-08-01T13:20:18;5.88;;;1.15;;
78406;SDS011;67692;51.074;-1.790;2023-08-01T13:22:45;3.17;;;0.80;;
78406;SDS011;67692;51.074;-1.790;2023-08-01T13:25:13;3.20;;;0.90;;
78406;SDS011;67692;51.074;-1.790;2023-08-01T13:27:40;5.63;;;1.20;;
78406;SDS011;67692;51.074;-1.790;2023-08-01T13:30:08;5.70;;;1.10;;
78406;SDS011;67692;51.074;-1.790;2023-08-01T13:32:35;6.45;;;1.08;;
78406;SDS011;67692;51.074;-1.790;2023-08-01T13:35:04;4.97;;;0.80;;
78406;SDS011;67692;51.074;-1.790;2023-08-01T13:37:31;3.28;;;0.80;;
78406;SDS011;67692;51.074;-1.790;2023-08-01T13:39:57;2.92;;;0.93;;
78406;SDS011;67692;51.074;-1.790;2023-08-01T13:42:25;4.35;;;0.98;;
78406;SDS011;67692;51.074;-1.790;2023-08-01T13:44:53;3.60;;;0.90;;
78406;SDS011;67692;51.074;-1.790;2023-08-01T13:47:20;4.45;;;1.23;;
78406;SDS011;67692;51.074;-1.790;2023-08-01T13:49:46;3.65;;;1.20;;
78406;SDS011;67692;51.074;-1.790;2023-08-01T13:52:14;2.97;;;0.80;;
78406;SDS011;67692;51.074;-1.790;2023-08-01T13:54:41;4.50;;;1.20;;
78406;SDS011;67692;51.074;-1.790;2023-08-01T13:57:08;2.67;;;0.98;;
78406;SDS011;67692;51.074;-1.790;2023-08-01T13:59:34;3.25;;;1.20;;
78406;SDS011;67692;51.074;-1.790;2023-08-01T14:02:01;9.18;;;1.10;;
78406;SDS011;67692;51.074;-1.790;2023-08-01T14:04:28;5.38;;;1.20;;
78406;SDS011;67692;51.074;-1.790;2023-08-01T14:06:55;4.00;;;1.13;;
78406;SDS011;67692;51.074;-1.790;2023-08-01T14:09:23;4.78;;;1.50;;
78406;SDS011;67692;51.074;-1.790;2023-08-01T14:11:49;6.80;;;1.33;;
78406;SDS011;67692;51.074;-1.790;2023-08-01T14:14:16;5.78;;;1.40;;
78406;SDS011;67692;51.074;-1.790;2023-08-01T14:16:42;10.07;;;1.50;;
78406;SDS011;67692;51.074;-1.790;2023-08-01T14:19:09;10.05;;;2.72;;
78406;SDS011;67692;51.074;-1.790;2023-08-01T14:21:35;12.27;;;2.45;;
78406;SDS011;67692;51.074;-1.790;2023-08-01T14:24:02;4.00;;;1.35;;
78406;SDS011;67692;51.074;-1.790;2023-08-01T14:26:31;7.38;;;2.05;;
78406;SDS011;67692;51.074;-1.790;2023-08-01T14:28:59;6.70;;;1.70;;
78406;SDS011;67692;51.074;-1.790;2023-08-01T14:31:25;6.97;;;2.13;;
78406;SDS011;67692;51.074;-1.790;2023-08-01T14:33:52;5.45;;;1.60;;